sensor_id;sensor_type;location;lat;lon;timestamp;P1;durP1;ratioP1;P2;durP2;ratioP2
18435;SDS011;9346;52.006;4.720;2023-03-09T00:00:21;22.37;;;10.23;;
18435;SDS011;9346;52.006;4.720;2023-03-09T00:02:48;18.50;;;8.77;;
18435;SDS011;9346;52.006;4.720;2023-03-09T00:05:15;18.13;;;8.23;;
18435;SDS011;9346;52.006;4.720;2023-03-09T00:07:44;19.73;;;9.17;;
18435;SDS011;9346;52.006;4.720;2023-03-09T00:10:13;26.17;;;9.83;;
18435;SDS011;9346;52.006;4.720;2023-03-09T00:12:41;13.50;;;8.60;;
18435;SDS011;9346;52.006;4.720;2023-03-09T00:15:09;18.00;;;8.43;;
18435;SDS011;9346;52.006;4.720;2023-03-09T00:17:36;19.57;;;8.93;;
18435;SDS011;9346;52.006;4.720;2023-03-09T00:20:05;19.70;;;8.93;;
18435;SDS011;9346;52.006;4.720;2023-03-09T00:22:42;22.80;;;10.33;;
18435;SDS011;9346;52.006;4.720;2023-03-09T00:25:14;16.90;;;8.87;;
18435;SDS011;9346;52.006;4.720;2023-03-09T00:27:42;15.90;;;8.53;;
18435;SDS011;9346;52.006;4.720;2023-03-09T00:30:12;16.20;;;8.70;;
18435;SDS011;9346;52.006;4.720;2023-03-09T00:32:40;23.03;;;9.43;;
18435;SDS011;9346;52.006;4.720;2023-03-09T00:35:07;18.13;;;7.70;;
18435;SDS011;9346;52.006;4.720;2023-03-09T00:37:35;15.73;;;7.87;;
18435;SDS011;9346;52.006;4.720;2023-03-09T00:40:03;22.70;;;8.17;;
18435;SDS011;9346;52.006;4.720;2023-03-09T00:42:36;15.53;;;8.10;;
18435;SDS011;9346;52.006;4.720;2023-03-09T00:45:04;14.20;;;7.73;;
18435;SDS011;9346;52.006;4.720;2023-03-09T00:47:32;21.67;;;9.07;;
18435;SDS011;9346;52.006;4.720;2023-03-09T00:49:59;17.47;;;7.30;;
18435;SDS011;9346;52.006;4.720;2023-03-09T00:52:26;12.70;;;6.77;;
18435;SDS011;9346;52.006;4.720;2023-03-09T00:54:53;19.20;;;8.50;;
18435;SDS011;9346;52.006;4.720;2023-03-09T00:57:20;19.63;;;9.00;;
18435;SDS011;9346;52.006;4.720;2023-03-09T00:59:49;17.90;;;8.37;;
18435;SDS011;9346;52.006;4.720;2023-03-09T01:02:17;16.03;;;8.70;;
18435;SDS011;9346;52.006;4.720;2023-03-09T01:04:45;19.40;;;8.60;;
18435;SDS011;9346;52.006;4.720;2023-03-09T01:07:13;16.63;;;7.93;;
18435;SDS011;9346;52.006;4.720;2023-03-09T01:09:40;15.77;;;7.67;;
18435;SDS011;9346;52.006;4.720;2023-03-09T01:12:07;22.03;;;9.50;;
18435;SDS011;9346;52.006;4.720;2023-03-09T01:14:35;20.30;;;8.83;;
18435;SDS011;9346;52.006;4.720;2023-03-09T01:17:03;21.83;;;8.77;;
18435;SDS011;9346;52.006;4.720;2023-03-09T01:19:32;19.20;;;9.03;;
18435;SDS011;9346;52.006;4.720;2023-03-09T01:21:59;13.87;;;7.23;;
18435;SDS011;9346;52.006;4.720;2023-03-09T01:24:27;20.07;;;8.87;;
18435;SDS011;9346;52.006;4.720;2023-03-09T01:26:54;20.47;;;9.83;;
18435;SDS011;9346;52.006;4.720;2023-03-09T01:29:21;16.97;;;8.90;;
18435;SDS011;9346;52.006;4.720;2023-03-09T01:31:48;18.80;;;8.60;;
18435;SDS011;9346;52.006;4.720;2023-03-09T01:34:17;20.17;;;8.37;;
18435;SDS011;9346;52.006;4.720;2023-03-09T01:36:44;19.37;;;8.13;;
18435;SDS011;9346;52.006;4.720;2023-03-09T01:39:11;19.47;;;8.70;;
18435;SDS011;9346;52.006;4.720;2023-03-09T01:41:38;18.23;;;9.53;;
18435;SDS011;9346;52.006;4.720;2023-03-09T01:44:05;16.47;;;8.20;;
18435;SDS011;9346;52.006;4.720;2023-03-09T01:46:36;13.30;;;7.17;;
18435;SDS011;9346;52.006;4.720;2023-03-09T01:52:03;16.30;;;7.20;;
18435;SDS011;9346;52.006;4.720;2023-03-09T01:54:35;12.53;;;7.33;;
18435;SDS011;9346;52.006;4.720;2023-03-09T01:57:09;16.30;;;7.27;;
18435;SDS011;9346;52.006;4.720;2023-03-09T01:59:42;13.87;;;7.00;;
18435;SDS011;9346;52.006;4.720;2023-03-09T02:02:12;16.73;;;8.03;;
18435;SDS011;9346;52.006;4.720;2023-03-09T02:04:43;14.90;;;7.03;;
18435;SDS011;9346;52.006;4.720;2023-03-09T02:07:13;15.07;;;7.13;;
18435;SDS011;9346;52.006;4.720;2023-03-09T02:09:44;18.73;;;6.80;;
18435;SDS011;9346;52.006;4.720;2023-03-09T02:12:16;12.33;;;6.87;;
18435;SDS011;9346;52.006;4.720;2023-03-09T02:14:45;16.47;;;7.43;;
18435;SDS011;9346;52.006;4.720;2023-03-09T02:17:13;12.40;;;6.10;;
18435;SDS011;9346;52.006;4.720;2023-03-09T02:22:34;15.73;;;7.27;;
18435;SDS011;9346;52.006;4.720;2023-03-09T02:25:05;17.70;;;8.00;;
18435;SDS011;9346;52.006;4.720;2023-03-09T02:27:42;11.10;;;6.77;;
18435;SDS011;9346;52.006;4.720;2023-03-09T02:30:11;10.80;;;6.53;;
18435;SDS011;9346;52.006;4.720;2023-03-09T02:32:39;12.23;;;7.00;;
18435;SDS011;9346;52.006;4.720;2023-03-09T02:35:06;14.50;;;7.30;;
18435;SDS011;9346;52.006;4.720;2023-03-09T02:37:35;13.27;;;5.90;;
18435;SDS011;9346;52.006;4.720;2023-03-09T02:40:05;13.97;;;7.03;;
18435;SDS011;9346;52.006;4.720;2023-03-09T02:42:38;16.47;;;6.73;;
18435;SDS011;9346;52.006;4.720;2023-03-09T02:45:08;14.27;;;7.93;;
18435;SDS011;9346;52.006;4.720;2023-03-09T02:47:38;13.07;;;7.07;;
18435;SDS011;9346;52.006;4.720;2023-03-09T02:50:05;14.80;;;8.17;;
18435;SDS011;9346;52.006;4.720;2023-03-09T02:52:34;13.17;;;7.10;;
18435;SDS011;9346;52.006;4.720;2023-03-09T02:55:02;13.87;;;6.53;;
18435;SDS011;9346;52.006;4.720;2023-03-09T02:57:29;19.97;;;8.50;;
18435;SDS011;9346;52.006;4.720;2023-03-09T02:59:56;13.27;;;7.07;;
18435;SDS011;9346;52.006;4.720;2023-03-09T03:02:25;17.17;;;7.83;;
18435;SDS011;9346;52.006;4.720;2023-03-09T03:04:52;13.50;;;7.27;;
18435;SDS011;9346;52.006;4.720;2023-03-09T03:07:20;14.27;;;7.77;;
18435;SDS011;9346;52.006;4.720;2023-03-09T03:09:47;14.03;;;6.80;;
18435;SDS011;9346;52.006;4.720;2023-03-09T03:12:13;19.10;;;7.87;;
18435;SDS011;9346;52.006;4.720;2023-03-09T03:14:43;15.97;;;7.13;;
18435;SDS011;9346;52.006;4.720;2023-03-09T03:17:09;16.93;;;7.87;;
18435;SDS011;9346;52.006;4.720;2023-03-09T03:19:38;14.07;;;6.30;;
18435;SDS011;9346;52.006;4.720;2023-03-09T03:22:05;15.87;;;7.17;;
18435;SDS011;9346;52.006;4.720;2023-03-09T03:24:34;16.73;;;7.40;;
18435;SDS011;9346;52.006;4.720;2023-03-09T03:27:02;21.70;;;7.87;;
18435;SDS011;9346;52.006;4.720;2023-03-09T03:29:29;14.33;;;6.80;;
18435;SDS011;9346;52.006;4.720;2023-03-09T03:31:57;21.03;;;8.53;;
18435;SDS011;9346;52.006;4.720;2023-03-09T03:34:24;20.40;;;7.27;;
18435;SDS011;9346;52.006;4.720;2023-03-09T03:36:53;15.40;;;7.70;;
18435;SDS011;9346;52.006;4.720;2023-03-09T03:39:20;18.43;;;8.20;;
18435;SDS011;9346;52.006;4.720;2023-03-09T03:41:47;15.50;;;8.43;;
18435;SDS011;9346;52.006;4.720;2023-03-09T03:44:14;19.87;;;7.43;;
18435;SDS011;9346;52.006;4.720;2023-03-09T03:46:41;14.33;;;7.70;;
18435;SDS011;9346;52.006;4.720;2023-03-09T03:49:08;14.87;;;7.70;;
18435;SDS011;9346;52.006;4.720;2023-03-09T03:51:35;16.47;;;8.00;;
18435;SDS011;9346;52.006;4.720;2023-03-09T03:54:04;15.90;;;7.67;;
18435;SDS011;9346;52.006;4.720;2023-03-09T03:56:31;12.93;;;6.80;;
18435;SDS011;9346;52.006;4.720;2023-03-09T03:58:59;12.73;;;6.53;;
18435;SDS011;9346;52.006;4.720;2023-03-09T04:01:26;14.63;;;7.80;;
18435;SDS011;9346;52.006;4.720;2023-03-09T04:03:53;12.50;;;6.43;;
18435;SDS011;9346;52.006;4.720;2023-03-09T04:06:19;14.87;;;7.83;;
18435;SDS011;9346;52.006;4.720;2023-03-09T04:08:46;18.23;;;8.00;;
18435;SDS011;9346;52.006;4.720;2023-03-09T04:11:16;15.40;;;6.53;;
18435;SDS011;9346;52.006;4.720;2023-03-09T04:13:46;14.77;;;7.00;;
18435;SDS011;9346;52.006;4.720;2023-03-09T04:16:13;17.53;;;9.00;;
18435;SDS011;9346;52.006;4.720;2023-03-09T04:18:40;14.50;;;6.43;;
18435;SDS011;9346;52.006;4.720;2023-03-09T04:21:07;17.33;;;8.03;;
18435;SDS011;9346;52.006;4.720;2023-03-09T04:23:34;15.70;;;7.60;;
18435;SDS011;9346;52.006;4.720;2023-03-09T04:26:02;19.23;;;8.00;;
18435;SDS011;9346;52.006;4.720;2023-03-09T04:28:32;18.77;;;6.53;;
18435;SDS011;9346;52.006;4.720;2023-03-09T04:30:59;13.57;;;6.87;;
18435;SDS011;9346;52.006;4.720;2023-03-09T04:33:26;19.07;;;8.23;;
18435;SDS011;9346;52.006;4.720;2023-03-09T04:35:53;11.67;;;6.23;;
18435;SDS011;9346;52.006;4.720;2023-03-09T04:38:20;14.57;;;7.77;;
18435;SDS011;9346;52.006;4.720;2023-03-09T04:40:47;15.63;;;7.33;;
18435;SDS011;9346;52.006;4.720;2023-03-09T04:43:14;15.57;;;7.10;;
18435;SDS011;9346;52.006;4.720;2023-03-09T04:45:42;15.87;;;6.97;;
18435;SDS011;9346;52.006;4.720;2023-03-09T04:48:09;14.63;;;6.67;;
18435;SDS011;9346;52.006;4.720;2023-03-09T04:50:36;9.63;;;5.10;;
18435;SDS011;9346;52.006;4.720;2023-03-09T04:53:04;12.00;;;6.43;;
18435;SDS011;9346;52.006;4.720;2023-03-09T04:55:31;14.10;;;7.03;;
18435;SDS011;9346;52.006;4.720;2023-03-09T04:57:58;13.03;;;6.83;;
18435;SDS011;9346;52.006;4.720;2023-03-09T05:00:25;12.50;;;6.60;;
18435;SDS011;9346;52.006;4.720;2023-03-09T05:02:54;12.33;;;5.63;;
18435;SDS011;9346;52.006;4.720;2023-03-09T05:05:21;14.47;;;6.97;;
18435;SDS011;9346;52.006;4.720;2023-03-09T05:07:48;13.63;;;7.27;;
18435;SDS011;9346;52.006;4.720;2023-03-09T05:10:15;15.80;;;7.03;;
18435;SDS011;9346;52.006;4.720;2023-03-09T05:12:42;15.00;;;6.63;;
18435;SDS011;9346;52.006;4.720;2023-03-09T05:15:10;19.30;;;7.80;;
18435;SDS011;9346;52.006;4.720;2023-03-09T05:17:37;13.07;;;7.33;;
18435;SDS011;9346;52.006;4.720;2023-03-09T05:20:07;18.23;;;7.57;;
18435;SDS011;9346;52.006;4.720;2023-03-09T05:22:36;19.17;;;8.00;;
18435;SDS011;9346;52.006;4.720;2023-03-09T05:25:03;18.87;;;8.17;;
18435;SDS011;9346;52.006;4.720;2023-03-09T05:27:31;15.10;;;7.10;;
18435;SDS011;9346;52.006;4.720;2023-03-09T05:29:58;17.20;;;7.63;;
18435;SDS011;9346;52.006;4.720;2023-03-09T05:32:25;20.20;;;8.20;;
18435;SDS011;9346;52.006;4.720;2023-03-09T05:34:52;16.57;;;7.93;;
18435;SDS011;9346;52.006;4.720;2023-03-09T05:37:21;14.87;;;7.53;;
18435;SDS011;9346;52.006;4.720;2023-03-09T05:39:48;13.23;;;7.10;;
18435;SDS011;9346;52.006;4.720;2023-03-09T05:42:16;19.20;;;9.10;;
18435;SDS011;9346;52.006;4.720;2023-03-09T05:44:43;20.03;;;7.43;;
18435;SDS011;9346;52.006;4.720;2023-03-09T05:47:10;15.30;;;8.37;;
18435;SDS011;9346;52.006;4.720;2023-03-09T05:49:37;15.23;;;8.10;;
18435;SDS011;9346;52.006;4.720;2023-03-09T05:52:05;17.03;;;7.87;;
18435;SDS011;9346;52.006;4.720;2023-03-09T05:54:33;17.17;;;8.00;;
18435;SDS011;9346;52.006;4.720;2023-03-09T05:57:00;20.10;;;8.77;;
18435;SDS011;9346;52.006;4.720;2023-03-09T05:59:27;19.10;;;8.80;;
18435;SDS011;9346;52.006;4.720;2023-03-09T06:01:54;24.20;;;9.83;;
18435;SDS011;9346;52.006;4.720;2023-03-09T06:04:21;17.20;;;9.70;;
18435;SDS011;9346;52.006;4.720;2023-03-09T06:06:48;17.90;;;9.37;;
18435;SDS011;9346;52.006;4.720;2023-03-09T06:09:15;21.07;;;10.67;;
18435;SDS011;9346;52.006;4.720;2023-03-09T06:11:44;17.87;;;8.33;;
18435;SDS011;9346;52.006;4.720;2023-03-09T06:14:11;22.43;;;10.13;;
18435;SDS011;9346;52.006;4.720;2023-03-09T06:16:38;16.90;;;8.70;;
18435;SDS011;9346;52.006;4.720;2023-03-09T06:19:05;19.63;;;10.50;;
18435;SDS011;9346;52.006;4.720;2023-03-09T06:21:33;16.00;;;6.83;;
18435;SDS011;9346;52.006;4.720;2023-03-09T06:23:59;20.00;;;9.23;;
18435;SDS011;9346;52.006;4.720;2023-03-09T06:26:27;18.03;;;8.30;;
18435;SDS011;9346;52.006;4.720;2023-03-09T06:28:56;23.30;;;9.57;;
18435;SDS011;9346;52.006;4.720;2023-03-09T06:31:23;22.87;;;9.53;;
18435;SDS011;9346;52.006;4.720;2023-03-09T06:33:50;23.77;;;9.37;;
18435;SDS011;9346;52.006;4.720;2023-03-09T06:36:17;15.77;;;8.83;;
18435;SDS011;9346;52.006;4.720;2023-03-09T06:38:44;24.47;;;10.07;;
18435;SDS011;9346;52.006;4.720;2023-03-09T06:41:11;15.67;;;8.43;;
18435;SDS011;9346;52.006;4.720;2023-03-09T06:43:39;22.97;;;10.80;;
18435;SDS011;9346;52.006;4.720;2023-03-09T06:46:09;19.03;;;10.07;;
18435;SDS011;9346;52.006;4.720;2023-03-09T06:48:35;24.60;;;10.60;;
18435;SDS011;9346;52.006;4.720;2023-03-09T06:51:02;21.10;;;10.07;;
18435;SDS011;9346;52.006;4.720;2023-03-09T06:53:30;21.27;;;9.90;;
18435;SDS011;9346;52.006;4.720;2023-03-09T06:55:58;23.30;;;8.50;;
18435;SDS011;9346;52.006;4.720;2023-03-09T06:58:26;19.60;;;9.10;;
18435;SDS011;9346;52.006;4.720;2023-03-09T07:00:53;18.17;;;9.17;;
18435;SDS011;9346;52.006;4.720;2023-03-09T07:03:24;24.67;;;10.60;;
18435;SDS011;9346;52.006;4.720;2023-03-09T07:05:51;21.20;;;9.57;;
18435;SDS011;9346;52.006;4.720;2023-03-09T07:08:18;21.97;;;9.90;;
18435;SDS011;9346;52.006;4.720;2023-03-09T07:10:44;20.63;;;9.80;;
18435;SDS011;9346;52.006;4.720;2023-03-09T07:13:12;25.63;;;10.10;;
18435;SDS011;9346;52.006;4.720;2023-03-09T07:15:40;19.23;;;8.80;;
18435;SDS011;9346;52.006;4.720;2023-03-09T07:18:07;20.00;;;10.27;;
18435;SDS011;9346;52.006;4.720;2023-03-09T07:20:36;19.57;;;8.77;;
18435;SDS011;9346;52.006;4.720;2023-03-09T07:23:05;20.43;;;9.43;;
18435;SDS011;9346;52.006;4.720;2023-03-09T07:25:32;17.40;;;8.17;;
18435;SDS011;9346;52.006;4.720;2023-03-09T07:28:01;19.60;;;8.97;;
18435;SDS011;9346;52.006;4.720;2023-03-09T07:30:28;29.03;;;10.73;;
18435;SDS011;9346;52.006;4.720;2023-03-09T07:32:56;19.03;;;9.63;;
18435;SDS011;9346;52.006;4.720;2023-03-09T07:35:23;22.87;;;10.00;;
18435;SDS011;9346;52.006;4.720;2023-03-09T07:37:52;28.70;;;10.83;;
18435;SDS011;9346;52.006;4.720;2023-03-09T07:40:19;22.13;;;11.27;;
18435;SDS011;9346;52.006;4.720;2023-03-09T07:42:48;16.93;;;9.57;;
18435;SDS011;9346;52.006;4.720;2023-03-09T07:45:17;30.37;;;11.43;;
18435;SDS011;9346;52.006;4.720;2023-03-09T07:47:44;17.40;;;9.47;;
18435;SDS011;9346;52.006;4.720;2023-03-09T07:50:12;24.23;;;10.90;;
18435;SDS011;9346;52.006;4.720;2023-03-09T07:52:40;20.47;;;8.97;;
18435;SDS011;9346;52.006;4.720;2023-03-09T07:55:10;23.57;;;11.47;;
18435;SDS011;9346;52.006;4.720;2023-03-09T07:57:38;27.10;;;10.00;;
18435;SDS011;9346;52.006;4.720;2023-03-09T08:00:06;26.87;;;11.80;;
18435;SDS011;9346;52.006;4.720;2023-03-09T08:02:38;25.30;;;9.77;;
18435;SDS011;9346;52.006;4.720;2023-03-09T08:05:06;21.30;;;9.50;;
18435;SDS011;9346;52.006;4.720;2023-03-09T08:07:34;18.37;;;8.67;;
18435;SDS011;9346;52.006;4.720;2023-03-09T08:10:01;27.03;;;10.30;;
18435;SDS011;9346;52.006;4.720;2023-03-09T08:12:31;22.80;;;10.17;;
18435;SDS011;9346;52.006;4.720;2023-03-09T08:14:58;26.30;;;11.83;;
18435;SDS011;9346;52.006;4.720;2023-03-09T08:17:25;23.23;;;9.67;;
18435;SDS011;9346;52.006;4.720;2023-03-09T08:19:52;26.43;;;9.90;;
18435;SDS011;9346;52.006;4.720;2023-03-09T08:22:19;20.13;;;9.47;;
18435;SDS011;9346;52.006;4.720;2023-03-09T08:24:47;23.80;;;11.03;;
18435;SDS011;9346;52.006;4.720;2023-03-09T08:27:13;25.20;;;11.27;;
18435;SDS011;9346;52.006;4.720;2023-03-09T08:29:42;28.47;;;10.83;;
18435;SDS011;9346;52.006;4.720;2023-03-09T08:32:09;29.63;;;11.23;;
18435;SDS011;9346;52.006;4.720;2023-03-09T08:34:36;23.07;;;9.50;;
18435;SDS011;9346;52.006;4.720;2023-03-09T08:37:04;21.13;;;8.93;;
18435;SDS011;9346;52.006;4.720;2023-03-09T08:39:31;25.23;;;8.60;;
18435;SDS011;9346;52.006;4.720;2023-03-09T08:41:58;22.17;;;11.23;;
18435;SDS011;9346;52.006;4.720;2023-03-09T08:44:25;26.40;;;10.87;;
18435;SDS011;9346;52.006;4.720;2023-03-09T08:46:53;25.73;;;9.67;;
18435;SDS011;9346;52.006;4.720;2023-03-09T08:49:20;26.50;;;10.53;;
18435;SDS011;9346;52.006;4.720;2023-03-09T08:51:47;20.70;;;9.90;;
18435;SDS011;9346;52.006;4.720;2023-03-09T08:54:15;22.03;;;9.90;;
18435;SDS011;9346;52.006;4.720;2023-03-09T08:56:42;26.07;;;11.87;;
18435;SDS011;9346;52.006;4.720;2023-03-09T08:59:09;23.73;;;11.47;;
18435;SDS011;9346;52.006;4.720;2023-03-09T09:01:36;25.10;;;11.07;;
18435;SDS011;9346;52.006;4.720;2023-03-09T09:04:05;21.10;;;10.33;;
18435;SDS011;9346;52.006;4.720;2023-03-09T09:06:32;30.13;;;11.60;;
18435;SDS011;9346;52.006;4.720;2023-03-09T09:08:59;22.13;;;10.40;;
18435;SDS011;9346;52.006;4.720;2023-03-09T09:11:26;23.90;;;10.97;;
18435;SDS011;9346;52.006;4.720;2023-03-09T09:13:53;22.90;;;11.07;;
18435;SDS011;9346;52.006;4.720;2023-03-09T09:16:20;25.03;;;11.60;;
18435;SDS011;9346;52.006;4.720;2023-03-09T09:18:47;19.57;;;10.07;;
18435;SDS011;9346;52.006;4.720;2023-03-09T09:21:16;25.10;;;10.67;;
18435;SDS011;9346;52.006;4.720;2023-03-09T09:23:43;29.90;;;11.67;;
18435;SDS011;9346;52.006;4.720;2023-03-09T09:26:11;19.43;;;9.63;;
18435;SDS011;9346;52.006;4.720;2023-03-09T09:28:40;22.90;;;10.53;;
18435;SDS011;9346;52.006;4.720;2023-03-09T09:31:09;23.57;;;11.43;;
18435;SDS011;9346;52.006;4.720;2023-03-09T09:33:38;24.83;;;11.87;;
18435;SDS011;9346;52.006;4.720;2023-03-09T09:36:06;24.07;;;10.43;;
18435;SDS011;9346;52.006;4.720;2023-03-09T09:38:38;20.60;;;9.93;;
18435;SDS011;9346;52.006;4.720;2023-03-09T09:41:06;25.23;;;11.30;;
18435;SDS011;9346;52.006;4.720;2023-03-09T09:43:41;22.63;;;10.93;;
18435;SDS011;9346;52.006;4.720;2023-03-09T09:46:10;26.57;;;10.63;;
18435;SDS011;9346;52.006;4.720;2023-03-09T09:48:40;27.73;;;10.23;;
18435;SDS011;9346;52.006;4.720;2023-03-09T09:51:10;27.40;;;12.23;;
18435;SDS011;9346;52.006;4.720;2023-03-09T09:53:52;27.27;;;11.10;;
18435;SDS011;9346;52.006;4.720;2023-03-09T09:56:29;17.67;;;8.77;;
18435;SDS011;9346;52.006;4.720;2023-03-09T09:59:03;21.57;;;10.93;;
18435;SDS011;9346;52.006;4.720;2023-03-09T10:01:35;26.67;;;11.30;;
18435;SDS011;9346;52.006;4.720;2023-03-09T10:04:14;24.47;;;11.33;;
18435;SDS011;9346;52.006;4.720;2023-03-09T10:06:47;23.20;;;11.20;;
18435;SDS011;9346;52.006;4.720;2023-03-09T10:09:18;30.60;;;12.10;;
18435;SDS011;9346;52.006;4.720;2023-03-09T10:11:50;23.17;;;11.50;;
18435;SDS011;9346;52.006;4.720;2023-03-09T10:14:23;21.17;;;10.50;;
18435;SDS011;9346;52.006;4.720;2023-03-09T10:16:56;25.17;;;12.53;;
18435;SDS011;9346;52.006;4.720;2023-03-09T10:19:28;24.27;;;9.63;;
18435;SDS011;9346;52.006;4.720;2023-03-09T10:21:59;29.03;;;11.60;;
18435;SDS011;9346;52.006;4.720;2023-03-09T10:24:32;28.67;;;11.73;;
18435;SDS011;9346;52.006;4.720;2023-03-09T10:27:06;21.17;;;10.47;;
18435;SDS011;9346;52.006;4.720;2023-03-09T10:29:42;22.63;;;11.23;;
18435;SDS011;9346;52.006;4.720;2023-03-09T10:32:16;24.90;;;11.40;;
18435;SDS011;9346;52.006;4.720;2023-03-09T10:34:52;26.73;;;11.17;;
18435;SDS011;9346;52.006;4.720;2023-03-09T10:37:22;22.13;;;10.20;;
18435;SDS011;9346;52.006;4.720;2023-03-09T10:39:52;25.13;;;12.03;;
18435;SDS011;9346;52.006;4.720;2023-03-09T10:42:20;21.97;;;10.43;;
18435;SDS011;9346;52.006;4.720;2023-03-09T10:44:53;23.80;;;10.07;;
18435;SDS011;9346;52.006;4.720;2023-03-09T10:47:36;25.30;;;12.07;;
18435;SDS011;9346;52.006;4.720;2023-03-09T10:50:17;24.20;;;10.73;;
18435;SDS011;9346;52.006;4.720;2023-03-09T10:52:46;21.40;;;11.30;;
18435;SDS011;9346;52.006;4.720;2023-03-09T10:58:16;25.17;;;11.23;;
18435;SDS011;9346;52.006;4.720;2023-03-09T11:00:50;22.30;;;9.33;;
18435;SDS011;9346;52.006;4.720;2023-03-09T11:03:21;24.67;;;10.67;;
18435;SDS011;9346;52.006;4.720;2023-03-09T11:05:49;26.53;;;9.70;;
18435;SDS011;9346;52.006;4.720;2023-03-09T11:08:21;24.13;;;11.73;;
18435;SDS011;9346;52.006;4.720;2023-03-09T11:11:01;21.63;;;9.60;;
18435;SDS011;9346;52.006;4.720;2023-03-09T11:13:30;23.33;;;9.77;;
18435;SDS011;9346;52.006;4.720;2023-03-09T11:16:05;23.80;;;10.13;;
18435;SDS011;9346;52.006;4.720;2023-03-09T11:18:39;25.23;;;9.90;;
18435;SDS011;9346;52.006;4.720;2023-03-09T11:21:07;28.63;;;11.23;;
18435;SDS011;9346;52.006;4.720;2023-03-09T11:23:36;27.67;;;9.97;;
18435;SDS011;9346;52.006;4.720;2023-03-09T11:26:12;24.67;;;10.80;;
18435;SDS011;9346;52.006;4.720;2023-03-09T11:28:50;26.70;;;9.93;;
18435;SDS011;9346;52.006;4.720;2023-03-09T11:31:24;30.57;;;11.47;;
18435;SDS011;9346;52.006;4.720;2023-03-09T11:33:52;23.63;;;10.60;;
18435;SDS011;9346;52.006;4.720;2023-03-09T11:36:24;27.13;;;10.60;;
18435;SDS011;9346;52.006;4.720;2023-03-09T11:38:59;21.83;;;10.17;;
18435;SDS011;9346;52.006;4.720;2023-03-09T11:41:30;25.60;;;11.37;;
18435;SDS011;9346;52.006;4.720;2023-03-09T11:44:00;27.17;;;11.27;;
18435;SDS011;9346;52.006;4.720;2023-03-09T11:46:32;31.40;;;12.83;;
18435;SDS011;9346;52.006;4.720;2023-03-09T11:49:04;28.57;;;12.00;;
18435;SDS011;9346;52.006;4.720;2023-03-09T11:51:35;23.13;;;10.80;;
18435;SDS011;9346;52.006;4.720;2023-03-09T11:54:08;21.53;;;10.33;;
18435;SDS011;9346;52.006;4.720;2023-03-09T11:56:46;24.80;;;10.83;;
18435;SDS011;9346;52.006;4.720;2023-03-09T11:59:16;20.73;;;10.40;;
18435;SDS011;9346;52.006;4.720;2023-03-09T12:01:47;25.30;;;10.30;;
18435;SDS011;9346;52.006;4.720;2023-03-09T12:04:19;23.37;;;9.47;;
18435;SDS011;9346;52.006;4.720;2023-03-09T12:06:50;25.83;;;11.50;;
18435;SDS011;9346;52.006;4.720;2023-03-09T12:09:27;27.63;;;11.87;;
18435;SDS011;9346;52.006;4.720;2023-03-09T12:12:02;29.80;;;11.53;;
18435;SDS011;9346;52.006;4.720;2023-03-09T12:14:44;25.17;;;12.37;;
18435;SDS011;9346;52.006;4.720;2023-03-09T12:17:17;23.73;;;11.97;;
18435;SDS011;9346;52.006;4.720;2023-03-09T12:19:49;25.60;;;11.90;;
18435;SDS011;9346;52.006;4.720;2023-03-09T12:22:19;22.57;;;10.33;;
18435;SDS011;9346;52.006;4.720;2023-03-09T12:24:53;20.77;;;10.27;;
18435;SDS011;9346;52.006;4.720;2023-03-09T12:27:24;25.57;;;10.53;;
18435;SDS011;9346;52.006;4.720;2023-03-09T12:29:52;22.70;;;10.87;;
18435;SDS011;9346;52.006;4.720;2023-03-09T12:32:36;21.50;;;10.00;;
18435;SDS011;9346;52.006;4.720;2023-03-09T12:38:24;18.87;;;10.10;;
18435;SDS011;9346;52.006;4.720;2023-03-09T12:40:52;23.30;;;10.97;;
18435;SDS011;9346;52.006;4.720;2023-03-09T12:43:42;28.87;;;9.47;;
18435;SDS011;9346;52.006;4.720;2023-03-09T12:49:23;24.47;;;11.30;;
18435;SDS011;9346;52.006;4.720;2023-03-09T12:52:07;25.40;;;10.63;;
18435;SDS011;9346;52.006;4.720;2023-03-09T12:54:40;20.87;;;10.73;;
18435;SDS011;9346;52.006;4.720;2023-03-09T12:57:09;21.50;;;10.47;;
18435;SDS011;9346;52.006;4.720;2023-03-09T12:59:43;27.37;;;10.93;;
18435;SDS011;9346;52.006;4.720;2023-03-09T13:05:12;28.90;;;10.93;;
18435;SDS011;9346;52.006;4.720;2023-03-09T13:07:55;23.80;;;10.07;;
18435;SDS011;9346;52.006;4.720;2023-03-09T13:10:30;26.20;;;10.83;;
18435;SDS011;9346;52.006;4.720;2023-03-09T13:22:15;21.47;;;8.63;;
18435;SDS011;9346;52.006;4.720;2023-03-09T13:24:44;24.53;;;9.80;;
18435;SDS011;9346;52.006;4.720;2023-03-09T13:27:14;26.40;;;8.87;;
18435;SDS011;9346;52.006;4.720;2023-03-09T13:29:49;21.93;;;10.33;;
18435;SDS011;9346;52.006;4.720;2023-03-09T13:32:21;18.20;;;9.90;;
18435;SDS011;9346;52.006;4.720;2023-03-09T13:34:55;17.90;;;9.57;;
18435;SDS011;9346;52.006;4.720;2023-03-09T13:37:25;23.37;;;10.30;;
18435;SDS011;9346;52.006;4.720;2023-03-09T13:39:58;20.27;;;8.87;;
18435;SDS011;9346;52.006;4.720;2023-03-09T13:42:28;23.10;;;10.20;;
18435;SDS011;9346;52.006;4.720;2023-03-09T13:44:58;22.97;;;10.73;;
18435;SDS011;9346;52.006;4.720;2023-03-09T13:47:27;27.00;;;10.53;;
18435;SDS011;9346;52.006;4.720;2023-03-09T13:49:58;25.80;;;10.57;;
18435;SDS011;9346;52.006;4.720;2023-03-09T13:52:27;21.17;;;10.17;;
18435;SDS011;9346;52.006;4.720;2023-03-09T13:54:55;25.50;;;10.57;;
18435;SDS011;9346;52.006;4.720;2023-03-09T13:57:23;23.27;;;9.27;;
18435;SDS011;9346;52.006;4.720;2023-03-09T13:59:53;24.47;;;9.63;;
18435;SDS011;9346;52.006;4.720;2023-03-09T14:02:25;22.23;;;10.00;;
18435;SDS011;9346;52.006;4.720;2023-03-09T14:07:49;19.00;;;9.17;;
18435;SDS011;9346;52.006;4.720;2023-03-09T14:10:18;25.17;;;9.87;;
18435;SDS011;9346;52.006;4.720;2023-03-09T14:12:51;24.93;;;9.10;;
18435;SDS011;9346;52.006;4.720;2023-03-09T14:15:22;25.80;;;10.60;;
18435;SDS011;9346;52.006;4.720;2023-03-09T14:17:51;23.43;;;8.90;;
18435;SDS011;9346;52.006;4.720;2023-03-09T14:20:21;22.53;;;9.53;;
18435;SDS011;9346;52.006;4.720;2023-03-09T14:22:49;24.03;;;10.43;;
18435;SDS011;9346;52.006;4.720;2023-03-09T14:25:20;23.03;;;9.50;;
18435;SDS011;9346;52.006;4.720;2023-03-09T14:27:56;19.77;;;8.97;;
18435;SDS011;9346;52.006;4.720;2023-03-09T14:30:31;26.27;;;10.13;;
18435;SDS011;9346;52.006;4.720;2023-03-09T14:33:11;20.47;;;8.30;;
18435;SDS011;9346;52.006;4.720;2023-03-09T14:35:51;24.73;;;10.37;;
18435;SDS011;9346;52.006;4.720;2023-03-09T14:38:31;21.73;;;9.23;;
18435;SDS011;9346;52.006;4.720;2023-03-09T14:40:59;20.40;;;10.60;;
18435;SDS011;9346;52.006;4.720;2023-03-09T14:43:30;17.63;;;8.63;;
18435;SDS011;9346;52.006;4.720;2023-03-09T14:46:09;20.50;;;8.83;;
18435;SDS011;9346;52.006;4.720;2023-03-09T14:48:41;22.20;;;8.87;;
18435;SDS011;9346;52.006;4.720;2023-03-09T14:51:13;22.13;;;9.40;;
18435;SDS011;9346;52.006;4.720;2023-03-09T14:53:56;22.83;;;9.73;;
18435;SDS011;9346;52.006;4.720;2023-03-09T14:56:26;20.93;;;9.67;;
18435;SDS011;9346;52.006;4.720;2023-03-09T14:58:55;19.93;;;9.47;;
18435;SDS011;9346;52.006;4.720;2023-03-09T15:01:23;24.03;;;10.03;;
18435;SDS011;9346;52.006;4.720;2023-03-09T15:03:51;21.87;;;8.53;;
18435;SDS011;9346;52.006;4.720;2023-03-09T15:06:20;22.70;;;9.37;;
18435;SDS011;9346;52.006;4.720;2023-03-09T15:08:48;18.40;;;8.80;;
18435;SDS011;9346;52.006;4.720;2023-03-09T15:11:15;16.70;;;8.17;;
18435;SDS011;9346;52.006;4.720;2023-03-09T15:13:42;23.13;;;9.57;;
18435;SDS011;9346;52.006;4.720;2023-03-09T15:16:10;22.93;;;9.20;;
18435;SDS011;9346;52.006;4.720;2023-03-09T15:18:38;15.93;;;8.37;;
18435;SDS011;9346;52.006;4.720;2023-03-09T15:21:04;20.60;;;8.40;;
18435;SDS011;9346;52.006;4.720;2023-03-09T15:23:33;25.23;;;10.10;;
18435;SDS011;9346;52.006;4.720;2023-03-09T15:26:04;20.07;;;9.90;;